createdAt,value
2023-02-16T00:04:55.312Z,60.40
2023-02-16T00:10:21.341Z,60.40
2023-02-16T00:15:44.355Z,60.40
2023-02-16T00:21:07.343Z,60.50
2023-02-16T00:26:33.342Z,60.50
2023-02-16T00:31:56.515Z,60.70
2023-02-16T00:37:21.323Z,60.70
2023-02-16T00:42:49.406Z,60.70
2023-02-16T00:48:13.352Z,61.30
2023-02-16T00:53:36.337Z,60.60
2023-02-16T00:59:01.373Z,60.60
2023-02-16T01:04:34.364Z,60.50
2023-02-16T01:10:15.343Z,60.30
2023-02-16T01:15:41.447Z,60.40
2023-02-16T01:21:04.651Z,60.00
2023-02-16T01:26:31.391Z,60.60
2023-02-16T01:31:56.402Z,59.80
2023-02-16T01:37:19.438Z,60.00
2023-02-16T01:42:48.372Z,60.00
2023-02-16T01:48:18.371Z,60.10
2023-02-16T01:53:47.376Z,60.20
2023-02-16T01:59:15.392Z,60.20
2023-02-16T02:05:05.383Z,60.10
2023-02-16T02:10:35.405Z,60.20
2023-02-16T02:16:05.437Z,59.90
2023-02-16T02:22:17.405Z,60.00
2023-02-16T02:27:45.412Z,60.30
2023-02-16T02:33:27.478Z,59.90
2023-02-16T02:39:02.456Z,60.30
2023-02-16T02:44:30.383Z,60.00
2023-02-16T02:49:54.430Z,60.20
2023-02-16T02:55:37.457Z,60.10
2023-02-16T03:01:04.644Z,60.20
2023-02-16T03:06:31.445Z,60.30
2023-02-16T03:12:20.404Z,60.30
2023-02-16T03:18:05.587Z,60.30
2023-02-16T03:23:45.476Z,60.40
2023-02-16T03:29:31.411Z,60.20
2023-02-16T03:34:56.431Z,60.30
2023-02-16T03:40:39.440Z,60.10
2023-02-16T03:46:02.466Z,60.00
2023-02-16T03:51:27.426Z,60.00
2023-02-16T03:56:50.430Z,60.20
2023-02-16T04:02:13.504Z,60.20
2023-02-16T04:07:38.457Z,60.30
2023-02-16T04:13:01.554Z,60.80
2023-02-16T04:18:24.520Z,60.00
2023-02-16T04:23:49.456Z,60.00
2023-02-16T04:29:12.463Z,60.30
2023-02-16T04:34:35.439Z,60.30
2023-02-16T04:40:03.788Z,60.50
2023-02-16T04:45:26.622Z,60.30
2023-02-16T04:50:49.452Z,59.90
2023-02-16T04:56:18.550Z,59.70
2023-02-16T05:01:43.556Z,59.70
2023-02-16T05:07:07.468Z,59.90
2023-02-16T05:12:49.475Z,60.20
2023-02-16T05:18:13.484Z,60.40
2023-02-16T05:23:36.446Z,60.40
2023-02-16T05:29:01.596Z,60.20
2023-02-16T05:34:25.480Z,60.00
2023-02-16T05:39:49.479Z,59.80
2023-02-16T05:45:14.486Z,60.20
2023-02-16T05:50:37.497Z,60.30
2023-02-16T05:56:00.604Z,60.40
2023-02-16T06:01:25.482Z,60.20
2023-02-16T06:06:48.617Z,60.20
2023-02-16T06:12:12.515Z,60.10
2023-02-16T06:17:37.639Z,60.30
2023-02-16T06:23:00.494Z,60.30
2023-02-16T06:28:24.502Z,60.60
2023-02-16T06:33:49.490Z,60.40
2023-02-16T06:39:12.531Z,60.20
2023-02-16T06:44:35.525Z,60.30
2023-02-16T06:50:00.569Z,60.30
2023-02-16T06:55:23.572Z,60.00
2023-02-16T07:00:47.570Z,60.20
2023-02-16T07:06:12.526Z,60.30
2023-02-16T07:11:35.652Z,60.30
2023-02-16T07:16:58.716Z,60.20
2023-02-16T07:22:23.648Z,60.20
2023-02-16T07:28:11.137Z,60.20
2023-02-16T07:34:10.707Z,60.40
2023-02-16T07:40:15.078Z,60.70
2023-02-16T07:46:02.894Z,60.80
2023-02-16T07:52:23.282Z,60.60
2023-02-16T07:58:17.101Z,60.40
2023-02-16T08:04:15.896Z,60.60
2023-02-16T08:10:33.800Z,60.90
2023-02-16T08:16:41.505Z,60.90
2023-02-16T08:35:51.948Z,61.10
2023-02-16T08:42:30.840Z,61.10
2023-02-16T08:48:56.799Z,61.20
2023-02-16T08:55:52.551Z,61.20
2023-02-16T09:09:49.904Z,61.10
2023-02-16T09:37:08.082Z,61.20
2023-02-16T12:25:43.959Z,63.10
2023-02-16T12:30:58.355Z,63.30
2023-02-16T12:36:55.684Z,63.20
2023-02-16T12:42:37.690Z,63.10
2023-02-16T12:48:06.794Z,63.10
2023-02-16T12:53:34.662Z,63.10
2023-02-16T12:59:01.689Z,63.20
2023-02-16T13:04:32.873Z,63.00
2023-02-16T13:10:05.950Z,62.90
2023-02-16T13:15:34.722Z,62.60
2023-02-16T13:21:02.745Z,62.40
2023-02-16T13:26:48.747Z,62.30
2023-02-16T13:32:23.707Z,62.50
2023-02-16T13:38:06.791Z,62.50
2023-02-16T13:43:48.844Z,62.60
2023-02-16T13:49:12.721Z,62.60
2023-02-16T13:54:43.812Z,62.50
2023-02-16T14:00:11.730Z,62.50
2023-02-16T14:05:40.936Z,62.50
2023-02-16T14:11:14.753Z,62.50
2023-02-16T14:16:48.732Z,62.50
2023-02-16T14:22:18.823Z,62.60
2023-02-16T14:27:58.811Z,62.60
2023-02-16T14:33:26.892Z,62.90
2023-02-16T14:39:05.855Z,62.60
2023-02-16T14:44:45.779Z,62.50
2023-02-16T14:50:32.758Z,62.20
2023-02-16T14:56:16.895Z,62.10
2023-02-16T15:01:41.854Z,62.20
2023-02-16T15:07:07.756Z,62.00
2023-02-16T15:12:30.882Z,62.00
2023-02-16T15:17:56.797Z,62.00
2023-02-16T15:23:32.902Z,62.10
2023-02-16T15:29:02.793Z,62.10
2023-02-16T15:34:41.824Z,62.30
2023-02-16T15:40:25.412Z,62.40
2023-02-16T15:45:49.789Z,62.60
2023-02-16T15:51:23.794Z,62.50
2023-02-16T15:56:52.815Z,62.70
2023-02-16T16:02:21.877Z,62.60
2023-02-16T16:07:48.799Z,62.70
2023-02-16T16:13:15.807Z,62.60
2023-02-16T16:18:57.814Z,62.80
2023-02-16T16:24:38.854Z,63.00
2023-02-16T16:30:03.842Z,63.20
2023-02-16T16:35:28.812Z,62.80
2023-02-16T16:40:54.790Z,62.80
2023-02-16T16:46:21.866Z,62.50
2023-02-16T16:51:54.813Z,62.40
2023-02-16T16:57:25.806Z,62.10
2023-02-16T17:02:48.806Z,61.70
2023-02-16T17:08:13.850Z,61.40
2023-02-16T17:13:38.814Z,61.30
2023-02-16T17:19:01.793Z,61.30
2023-02-16T17:24:25.920Z,61.20
2023-02-16T17:29:50.985Z,61.40
2023-02-16T17:35:13.908Z,61.20
2023-02-16T17:40:36.820Z,61.20
2023-02-16T17:46:08.205Z,61.20
2023-02-16T17:51:34.968Z,61.00
2023-02-16T17:56:59.919Z,60.90
2023-02-16T18:02:28.300Z,60.80
2023-02-16T18:07:52.858Z,60.60
2023-02-16T18:13:17.953Z,60.60
2023-02-16T18:18:42.832Z,60.90
2023-02-16T18:24:06.048Z,61.00
2023-02-16T18:29:36.728Z,61.10
2023-02-16T18:35:56.124Z,61.10
2023-02-16T19:21:15.410Z,61.10
2023-02-16T19:27:50.791Z,61.30
2023-02-16T19:41:02.093Z,61.70
2023-02-16T20:26:56.690Z,61.90
2023-02-16T20:47:23.316Z,62.90
